sensor_id;sensor_type;location;lat;lon;timestamp;P1;durP1;ratioP1;P2;durP2;ratioP2
14094;SDS011;18096;48.142;16.290;2023-04-16T00:01:08;0.60;;;0.60;;
14094;SDS011;18096;48.142;16.290;2023-04-16T00:03:33;0.80;;;0.80;;
14094;SDS011;18096;48.142;16.290;2023-04-16T00:05:59;0.70;;;0.70;;
14094;SDS011;18096;48.142;16.290;2023-04-16T00:08:25;0.93;;;0.90;;
14094;SDS011;18096;48.142;16.290;2023-04-16T00:10:51;0.60;;;0.60;;
14094;SDS011;18096;48.142;16.290;2023-04-16T00:13:17;0.70;;;0.70;;
14094;SDS011;18096;48.142;16.290;2023-04-16T00:15:43;0.70;;;0.70;;
14094;SDS011;18096;48.142;16.290;2023-04-16T00:18:09;0.63;;;0.63;;
14094;SDS011;18096;48.142;16.290;2023-04-16T00:20:35;2.10;;;0.70;;
14094;SDS011;18096;48.142;16.290;2023-04-16T00:23:00;1.00;;;0.90;;
14094;SDS011;18096;48.142;16.290;2023-04-16T00:25:26;1.00;;;0.90;;
14094;SDS011;18096;48.142;16.290;2023-04-16T00:27:51;0.90;;;0.90;;
14094;SDS011;18096;48.142;16.290;2023-04-16T00:30:17;0.70;;;0.70;;
14094;SDS011;18096;48.142;16.290;2023-04-16T00:32:43;0.95;;;0.95;;
14094;SDS011;18096;48.142;16.290;2023-04-16T00:35:09;1.15;;;0.85;;
14094;SDS011;18096;48.142;16.290;2023-04-16T00:37:34;1.05;;;0.95;;
14094;SDS011;18096;48.142;16.290;2023-04-16T00:40:00;0.80;;;0.80;;
14094;SDS011;18096;48.142;16.290;2023-04-16T00:42:26;1.40;;;0.70;;
14094;SDS011;18096;48.142;16.290;2023-04-16T00:44:51;1.20;;;0.80;;
14094;SDS011;18096;48.142;16.290;2023-04-16T00:47:18;0.80;;;0.80;;
14094;SDS011;18096;48.142;16.290;2023-04-16T00:49:45;0.80;;;0.80;;
14094;SDS011;18096;48.142;16.290;2023-04-16T00:52:11;0.95;;;0.95;;
14094;SDS011;18096;48.142;16.290;2023-04-16T00:54:37;1.08;;;0.88;;
14094;SDS011;18096;48.142;16.290;2023-04-16T00:57:03;1.15;;;1.15;;
14094;SDS011;18096;48.142;16.290;2023-04-16T00:59:30;1.80;;;1.00;;
14094;SDS011;18096;48.142;16.290;2023-04-16T01:01:56;1.00;;;1.00;;
14094;SDS011;18096;48.142;16.290;2023-04-16T01:04:22;1.40;;;1.30;;
14094;SDS011;18096;48.142;16.290;2023-04-16T01:06:48;0.70;;;0.70;;
14094;SDS011;18096;48.142;16.290;2023-04-16T01:09:14;0.95;;;0.95;;
14094;SDS011;18096;48.142;16.290;2023-04-16T01:11:40;0.90;;;0.90;;
14094;SDS011;18096;48.142;16.290;2023-04-16T01:14:06;0.80;;;0.80;;
14094;SDS011;18096;48.142;16.290;2023-04-16T01:16:32;0.80;;;0.80;;
14094;SDS011;18096;48.142;16.290;2023-04-16T01:18:58;0.80;;;0.80;;
14094;SDS011;18096;48.142;16.290;2023-04-16T01:21:23;1.90;;;1.30;;
14094;SDS011;18096;48.142;16.290;2023-04-16T01:23:49;1.20;;;0.82;;
14094;SDS011;18096;48.142;16.290;2023-04-16T01:26:15;1.13;;;1.02;;
14094;SDS011;18096;48.142;16.290;2023-04-16T01:28:41;0.80;;;0.80;;
14094;SDS011;18096;48.142;16.290;2023-04-16T01:31:06;1.17;;;1.17;;
14094;SDS011;18096;48.142;16.290;2023-04-16T01:33:32;0.90;;;0.90;;
14094;SDS011;18096;48.142;16.290;2023-04-16T01:35:57;1.00;;;1.00;;
14094;SDS011;18096;48.142;16.290;2023-04-16T01:38:23;3.50;;;1.00;;
14094;SDS011;18096;48.142;16.290;2023-04-16T01:40:49;0.95;;;0.95;;
14094;SDS011;18096;48.142;16.290;2023-04-16T01:43:19;0.73;;;0.73;;
14094;SDS011;18096;48.142;16.290;2023-04-16T01:45:45;0.80;;;0.80;;
14094;SDS011;18096;48.142;16.290;2023-04-16T01:48:10;1.10;;;1.10;;
14094;SDS011;18096;48.142;16.290;2023-04-16T01:50:36;1.00;;;0.80;;
14094;SDS011;18096;48.142;16.290;2023-04-16T01:53:02;1.00;;;1.00;;
14094;SDS011;18096;48.142;16.290;2023-04-16T01:55:29;1.60;;;1.00;;
14094;SDS011;18096;48.142;16.290;2023-04-16T01:57:56;1.00;;;1.00;;
14094;SDS011;18096;48.142;16.290;2023-04-16T02:00:21;1.00;;;1.00;;
14094;SDS011;18096;48.142;16.290;2023-04-16T02:02:47;1.20;;;0.98;;
14094;SDS011;18096;48.142;16.290;2023-04-16T02:05:13;1.80;;;1.08;;
14094;SDS011;18096;48.142;16.290;2023-04-16T02:07:38;1.10;;;1.10;;
14094;SDS011;18096;48.142;16.290;2023-04-16T02:10:04;1.10;;;1.00;;
14094;SDS011;18096;48.142;16.290;2023-04-16T02:12:31;0.93;;;0.93;;
14094;SDS011;18096;48.142;16.290;2023-04-16T02:14:57;1.30;;;1.20;;
14094;SDS011;18096;48.142;16.290;2023-04-16T02:17:22;1.00;;;1.00;;
14094;SDS011;18096;48.142;16.290;2023-04-16T02:19:48;1.20;;;1.10;;
14094;SDS011;18096;48.142;16.290;2023-04-16T02:22:13;1.30;;;1.20;;
14094;SDS011;18096;48.142;16.290;2023-04-16T02:24:39;1.70;;;1.15;;
14094;SDS011;18096;48.142;16.290;2023-04-16T02:27:05;1.50;;;1.40;;
14094;SDS011;18096;48.142;16.290;2023-04-16T02:29:31;1.40;;;1.30;;
14094;SDS011;18096;48.142;16.290;2023-04-16T02:31:56;1.17;;;1.17;;
14094;SDS011;18096;48.142;16.290;2023-04-16T02:34:23;2.90;;;1.55;;
14094;SDS011;18096;48.142;16.290;2023-04-16T02:36:49;1.20;;;1.20;;
14094;SDS011;18096;48.142;16.290;2023-04-16T02:39:15;1.30;;;1.30;;
14094;SDS011;18096;48.142;16.290;2023-04-16T02:41:40;1.70;;;1.30;;
14094;SDS011;18096;48.142;16.290;2023-04-16T02:44:06;2.72;;;1.50;;
14094;SDS011;18096;48.142;16.290;2023-04-16T02:46:32;1.53;;;1.43;;
14094;SDS011;18096;48.142;16.290;2023-04-16T02:48:57;1.73;;;1.73;;
14094;SDS011;18096;48.142;16.290;2023-04-16T02:51:23;2.30;;;2.10;;
14094;SDS011;18096;48.142;16.290;2023-04-16T02:53:49;1.60;;;1.50;;
14094;SDS011;18096;48.142;16.290;2023-04-16T02:56:15;1.63;;;1.52;;
14094;SDS011;18096;48.142;16.290;2023-04-16T02:58:41;2.17;;;2.08;;
14094;SDS011;18096;48.142;16.290;2023-04-16T03:01:06;1.83;;;1.73;;
14094;SDS011;18096;48.142;16.290;2023-04-16T03:03:32;1.70;;;1.60;;
14094;SDS011;18096;48.142;16.290;2023-04-16T03:05:57;1.90;;;1.80;;
14094;SDS011;18096;48.142;16.290;2023-04-16T03:08:23;1.80;;;1.70;;
14094;SDS011;18096;48.142;16.290;2023-04-16T03:10:49;1.83;;;1.73;;
14094;SDS011;18096;48.142;16.290;2023-04-16T03:13:14;2.05;;;1.95;;
14094;SDS011;18096;48.142;16.290;2023-04-16T03:15:40;1.98;;;1.88;;
14094;SDS011;18096;48.142;16.290;2023-04-16T03:18:06;1.90;;;1.80;;
14094;SDS011;18096;48.142;16.290;2023-04-16T03:20:31;1.50;;;1.50;;
14094;SDS011;18096;48.142;16.290;2023-04-16T03:22:57;1.60;;;1.50;;
14094;SDS011;18096;48.142;16.290;2023-04-16T03:25:23;2.10;;;2.00;;
14094;SDS011;18096;48.142;16.290;2023-04-16T03:27:48;2.00;;;1.90;;
14094;SDS011;18096;48.142;16.290;2023-04-16T03:30:14;2.00;;;1.90;;
14094;SDS011;18096;48.142;16.290;2023-04-16T03:32:40;2.30;;;2.20;;
14094;SDS011;18096;48.142;16.290;2023-04-16T03:35:06;2.20;;;2.00;;
14094;SDS011;18096;48.142;16.290;2023-04-16T03:37:33;2.47;;;2.30;;
14094;SDS011;18096;48.142;16.290;2023-04-16T03:39:59;2.58;;;2.38;;
14094;SDS011;18096;48.142;16.290;2023-04-16T03:42:25;2.20;;;2.10;;
14094;SDS011;18096;48.142;16.290;2023-04-16T03:44:51;2.45;;;2.35;;
14094;SDS011;18096;48.142;16.290;2023-04-16T03:47:18;6.30;;;2.60;;
14094;SDS011;18096;48.142;16.290;2023-04-16T03:49:46;2.47;;;2.38;;
14094;SDS011;18096;48.142;16.290;2023-04-16T03:52:12;2.53;;;2.42;;
14094;SDS011;18096;48.142;16.290;2023-04-16T03:54:37;2.60;;;2.50;;
14094;SDS011;18096;48.142;16.290;2023-04-16T03:57:03;4.30;;;2.90;;
14094;SDS011;18096;48.142;16.290;2023-04-16T03:59:29;2.83;;;2.63;;
14094;SDS011;18096;48.142;16.290;2023-04-16T04:01:54;2.55;;;2.45;;
14094;SDS011;18096;48.142;16.290;2023-04-16T04:04:20;2.10;;;2.00;;
14094;SDS011;18096;48.142;16.290;2023-04-16T04:06:46;3.10;;;2.80;;
14094;SDS011;18096;48.142;16.290;2023-04-16T04:09:12;3.00;;;2.80;;
14094;SDS011;18096;48.142;16.290;2023-04-16T04:11:39;2.33;;;2.22;;
14094;SDS011;18096;48.142;16.290;2023-04-16T04:14:04;2.10;;;2.00;;
14094;SDS011;18096;48.142;16.290;2023-04-16T04:16:30;2.97;;;2.65;;
14094;SDS011;18096;48.142;16.290;2023-04-16T04:18:56;2.92;;;2.72;;
14094;SDS011;18096;48.142;16.290;2023-04-16T04:21:22;4.73;;;2.90;;
14094;SDS011;18096;48.142;16.290;2023-04-16T04:23:47;2.47;;;2.30;;
14094;SDS011;18096;48.142;16.290;2023-04-16T04:26:13;3.10;;;2.90;;
14094;SDS011;18096;48.142;16.290;2023-04-16T04:28:39;2.72;;;2.53;;
14094;SDS011;18096;48.142;16.290;2023-04-16T04:31:05;2.85;;;2.55;;
14094;SDS011;18096;48.142;16.290;2023-04-16T04:33:30;3.13;;;2.90;;
14094;SDS011;18096;48.142;16.290;2023-04-16T04:35:56;2.90;;;2.50;;
14094;SDS011;18096;48.142;16.290;2023-04-16T04:38:21;2.45;;;2.35;;
14094;SDS011;18096;48.142;16.290;2023-04-16T04:40:49;3.10;;;2.80;;
14094;SDS011;18096;48.142;16.290;2023-04-16T04:43:16;3.05;;;2.85;;
14094;SDS011;18096;48.142;16.290;2023-04-16T04:45:42;3.15;;;2.95;;
14094;SDS011;18096;48.142;16.290;2023-04-16T04:48:07;2.70;;;2.50;;
14094;SDS011;18096;48.142;16.290;2023-04-16T04:50:33;3.17;;;2.87;;
14094;SDS011;18096;48.142;16.290;2023-04-16T04:52:59;3.13;;;2.80;;
14094;SDS011;18096;48.142;16.290;2023-04-16T04:55:24;2.70;;;2.50;;
14094;SDS011;18096;48.142;16.290;2023-04-16T04:57:50;6.30;;;2.53;;
14094;SDS011;18096;48.142;16.290;2023-04-16T05:00:16;2.70;;;2.50;;
14094;SDS011;18096;48.142;16.290;2023-04-16T05:02:41;2.53;;;2.33;;
14094;SDS011;18096;48.142;16.290;2023-04-16T05:05:07;2.97;;;2.78;;
14094;SDS011;18096;48.142;16.290;2023-04-16T05:07:33;3.00;;;2.80;;
14094;SDS011;18096;48.142;16.290;2023-04-16T05:09:59;3.08;;;2.88;;
14094;SDS011;18096;48.142;16.290;2023-04-16T05:12:24;3.30;;;2.80;;
14094;SDS011;18096;48.142;16.290;2023-04-16T05:14:50;3.60;;;2.80;;
14094;SDS011;18096;48.142;16.290;2023-04-16T05:17:16;3.17;;;2.97;;
14094;SDS011;18096;48.142;16.290;2023-04-16T05:19:42;3.53;;;2.70;;
14094;SDS011;18096;48.142;16.290;2023-04-16T05:22:07;3.92;;;2.67;;
14094;SDS011;18096;48.142;16.290;2023-04-16T05:24:33;3.10;;;2.70;;
14094;SDS011;18096;48.142;16.290;2023-04-16T05:26:58;2.75;;;2.55;;
14094;SDS011;18096;48.142;16.290;2023-04-16T05:29:24;3.67;;;2.90;;
14094;SDS011;18096;48.142;16.290;2023-04-16T05:31:50;3.20;;;2.58;;
14094;SDS011;18096;48.142;16.290;2023-04-16T05:34:16;3.00;;;2.80;;
14094;SDS011;18096;48.142;16.290;2023-04-16T05:36:42;2.43;;;2.23;;
14094;SDS011;18096;48.142;16.290;2023-04-16T05:39:07;2.30;;;2.20;;
14094;SDS011;18096;48.142;16.290;2023-04-16T05:41:34;2.92;;;2.72;;
14094;SDS011;18096;48.142;16.290;2023-04-16T05:44:00;3.28;;;2.60;;
14094;SDS011;18096;48.142;16.290;2023-04-16T05:46:25;2.63;;;2.43;;
14094;SDS011;18096;48.142;16.290;2023-04-16T05:48:51;3.00;;;2.47;;
14094;SDS011;18096;48.142;16.290;2023-04-16T05:51:16;2.50;;;2.40;;
14094;SDS011;18096;48.142;16.290;2023-04-16T05:53:42;2.38;;;2.28;;
14094;SDS011;18096;48.142;16.290;2023-04-16T05:56:08;2.70;;;2.50;;
14094;SDS011;18096;48.142;16.290;2023-04-16T05:58:34;3.50;;;3.30;;
14094;SDS011;18096;48.142;16.290;2023-04-16T06:01:00;2.80;;;2.70;;
14094;SDS011;18096;48.142;16.290;2023-04-16T06:03:26;3.10;;;2.90;;
14094;SDS011;18096;48.142;16.290;2023-04-16T06:05:51;2.80;;;2.60;;
14094;SDS011;18096;48.142;16.290;2023-04-16T06:08:17;3.30;;;2.70;;
14094;SDS011;18096;48.142;16.290;2023-04-16T06:10:46;2.55;;;2.45;;
14094;SDS011;18096;48.142;16.290;2023-04-16T06:13:11;3.10;;;2.90;;
14094;SDS011;18096;48.142;16.290;2023-04-16T06:15:37;2.83;;;2.50;;
14094;SDS011;18096;48.142;16.290;2023-04-16T06:18:03;3.20;;;3.00;;
14094;SDS011;18096;48.142;16.290;2023-04-16T06:20:29;2.60;;;2.40;;
14094;SDS011;18096;48.142;16.290;2023-04-16T06:22:55;3.30;;;3.03;;
14094;SDS011;18096;48.142;16.290;2023-04-16T06:25:21;3.15;;;2.85;;
14094;SDS011;18096;48.142;16.290;2023-04-16T06:27:46;3.80;;;2.90;;
14094;SDS011;18096;48.142;16.290;2023-04-16T06:30:12;3.00;;;2.80;;
14094;SDS011;18096;48.142;16.290;2023-04-16T06:32:39;3.67;;;2.85;;
14094;SDS011;18096;48.142;16.290;2023-04-16T06:35:08;3.30;;;3.00;;
14094;SDS011;18096;48.142;16.290;2023-04-16T06:37:34;3.10;;;3.00;;
14094;SDS011;18096;48.142;16.290;2023-04-16T06:40:00;3.08;;;2.33;;
14094;SDS011;18096;48.142;16.290;2023-04-16T06:42:26;2.85;;;2.70;;
14094;SDS011;18096;48.142;16.290;2023-04-16T06:44:51;2.97;;;2.83;;
14094;SDS011;18096;48.142;16.290;2023-04-16T06:47:17;3.15;;;2.95;;
14094;SDS011;18096;48.142;16.290;2023-04-16T06:49:43;4.10;;;2.80;;
14094;SDS011;18096;48.142;16.290;2023-04-16T06:52:08;3.20;;;2.90;;
14094;SDS011;18096;48.142;16.290;2023-04-16T06:54:34;2.95;;;2.75;;
14094;SDS011;18096;48.142;16.290;2023-04-16T06:57:00;4.80;;;3.40;;
14094;SDS011;18096;48.142;16.290;2023-04-16T06:59:26;3.00;;;2.80;;
14094;SDS011;18096;48.142;16.290;2023-04-16T07:01:51;3.00;;;2.80;;
14094;SDS011;18096;48.142;16.290;2023-04-16T07:04:17;4.07;;;3.70;;
14094;SDS011;18096;48.142;16.290;2023-04-16T07:06:43;3.45;;;3.15;;
14094;SDS011;18096;48.142;16.290;2023-04-16T07:09:08;3.13;;;2.87;;
14094;SDS011;18096;48.142;16.290;2023-04-16T07:11:34;3.80;;;3.30;;
14094;SDS011;18096;48.142;16.290;2023-04-16T07:14:00;2.97;;;2.78;;
14094;SDS011;18096;48.142;16.290;2023-04-16T07:16:26;2.83;;;2.65;;
14094;SDS011;18096;48.142;16.290;2023-04-16T07:18:51;3.53;;;3.20;;
14094;SDS011;18096;48.142;16.290;2023-04-16T07:21:17;2.93;;;2.73;;
14094;SDS011;18096;48.142;16.290;2023-04-16T07:23:43;3.13;;;2.92;;
14094;SDS011;18096;48.142;16.290;2023-04-16T07:26:08;2.55;;;2.45;;
14094;SDS011;18096;48.142;16.290;2023-04-16T07:28:35;3.50;;;3.20;;
14094;SDS011;18096;48.142;16.290;2023-04-16T07:31:01;3.97;;;3.40;;
14094;SDS011;18096;48.142;16.290;2023-04-16T07:33:27;2.80;;;2.70;;
14094;SDS011;18096;48.142;16.290;2023-04-16T07:35:53;3.43;;;3.17;;
14094;SDS011;18096;48.142;16.290;2023-04-16T07:38:18;3.90;;;3.05;;
14094;SDS011;18096;48.142;16.290;2023-04-16T07:40:44;3.00;;;2.80;;
14094;SDS011;18096;48.142;16.290;2023-04-16T07:43:10;2.78;;;2.67;;
14094;SDS011;18096;48.142;16.290;2023-04-16T07:45:37;2.90;;;2.70;;
14094;SDS011;18096;48.142;16.290;2023-04-16T07:48:03;2.90;;;2.70;;
14094;SDS011;18096;48.142;16.290;2023-04-16T07:50:29;4.80;;;2.85;;
14094;SDS011;18096;48.142;16.290;2023-04-16T07:52:55;3.30;;;3.00;;
14094;SDS011;18096;48.142;16.290;2023-04-16T07:55:20;2.57;;;2.47;;
14094;SDS011;18096;48.142;16.290;2023-04-16T07:57:46;2.70;;;2.60;;
14094;SDS011;18096;48.142;16.290;2023-04-16T08:00:12;2.90;;;2.60;;
14094;SDS011;18096;48.142;16.290;2023-04-16T08:02:38;3.53;;;3.22;;
14094;SDS011;18096;48.142;16.290;2023-04-16T08:05:04;3.00;;;2.80;;
14094;SDS011;18096;48.142;16.290;2023-04-16T08:07:30;3.00;;;2.60;;
14094;SDS011;18096;48.142;16.290;2023-04-16T08:09:56;6.00;;;2.50;;
14094;SDS011;18096;48.142;16.290;2023-04-16T08:12:21;2.50;;;2.40;;
14094;SDS011;18096;48.142;16.290;2023-04-16T08:14:47;2.72;;;2.53;;
14094;SDS011;18096;48.142;16.290;2023-04-16T08:17:13;2.50;;;2.40;;
14094;SDS011;18096;48.142;16.290;2023-04-16T08:19:40;2.45;;;2.30;;
14094;SDS011;18096;48.142;16.290;2023-04-16T08:22:06;3.33;;;2.20;;
14094;SDS011;18096;48.142;16.290;2023-04-16T08:24:32;2.40;;;2.20;;
14094;SDS011;18096;48.142;16.290;2023-04-16T08:26:58;2.30;;;2.20;;
14094;SDS011;18096;48.142;16.290;2023-04-16T08:29:24;2.28;;;2.17;;
14094;SDS011;18096;48.142;16.290;2023-04-16T08:31:50;2.08;;;1.90;;
14094;SDS011;18096;48.142;16.290;2023-04-16T08:34:17;2.50;;;2.00;;
14094;SDS011;18096;48.142;16.290;2023-04-16T08:36:42;2.42;;;2.00;;
14094;SDS011;18096;48.142;16.290;2023-04-16T08:39:08;1.70;;;1.60;;
14094;SDS011;18096;48.142;16.290;2023-04-16T08:41:34;1.70;;;1.60;;
14094;SDS011;18096;48.142;16.290;2023-04-16T08:44:06;2.22;;;2.13;;
14094;SDS011;18096;48.142;16.290;2023-04-16T08:46:34;2.35;;;1.90;;
14094;SDS011;18096;48.142;16.290;2023-04-16T08:49:03;1.73;;;1.63;;
14094;SDS011;18096;48.142;16.290;2023-04-16T08:51:34;2.50;;;1.70;;
14094;SDS011;18096;48.142;16.290;2023-04-16T08:54:03;1.40;;;1.30;;
14094;SDS011;18096;48.142;16.290;2023-04-16T08:56:35;1.80;;;1.70;;
14094;SDS011;18096;48.142;16.290;2023-04-16T08:59:01;1.20;;;1.20;;
14094;SDS011;18096;48.142;16.290;2023-04-16T09:01:34;1.60;;;1.50;;
14094;SDS011;18096;48.142;16.290;2023-04-16T09:04:00;1.50;;;1.40;;
14094;SDS011;18096;48.142;16.290;2023-04-16T09:06:27;1.60;;;1.50;;
14094;SDS011;18096;48.142;16.290;2023-04-16T09:08:53;2.10;;;2.00;;
14094;SDS011;18096;48.142;16.290;2023-04-16T09:11:19;2.10;;;2.00;;
14094;SDS011;18096;48.142;16.290;2023-04-16T09:13:45;2.20;;;2.00;;
14094;SDS011;18096;48.142;16.290;2023-04-16T09:16:11;2.40;;;2.30;;
14094;SDS011;18096;48.142;16.290;2023-04-16T09:18:38;1.80;;;1.70;;
14094;SDS011;18096;48.142;16.290;2023-04-16T09:21:03;1.80;;;1.50;;
14094;SDS011;18096;48.142;16.290;2023-04-16T09:23:30;2.03;;;1.90;;
14094;SDS011;18096;48.142;16.290;2023-04-16T09:25:58;2.70;;;2.50;;
14094;SDS011;18096;48.142;16.290;2023-04-16T09:28:37;2.78;;;2.58;;
14094;SDS011;18096;48.142;16.290;2023-04-16T09:31:08;2.20;;;1.95;;
14094;SDS011;18096;48.142;16.290;2023-04-16T09:33:34;2.50;;;2.30;;
14094;SDS011;18096;48.142;16.290;2023-04-16T09:36:00;2.80;;;2.40;;
14094;SDS011;18096;48.142;16.290;2023-04-16T09:38:26;2.30;;;2.10;;
14094;SDS011;18096;48.142;16.290;2023-04-16T09:41:18;3.10;;;2.30;;
14094;SDS011;18096;48.142;16.290;2023-04-16T09:43:58;2.30;;;2.10;;
14094;SDS011;18096;48.142;16.290;2023-04-16T09:46:35;1.90;;;1.80;;
14094;SDS011;18096;48.142;16.290;2023-04-16T09:49:14;2.13;;;2.00;;
14094;SDS011;18096;48.142;16.290;2023-04-16T09:51:41;1.85;;;1.75;;
14094;SDS011;18096;48.142;16.290;2023-04-16T09:54:08;2.30;;;1.70;;
14094;SDS011;18096;48.142;16.290;2023-04-16T09:56:43;1.80;;;1.70;;
14094;SDS011;18096;48.142;16.290;2023-04-16T09:59:20;2.40;;;2.20;;
14094;SDS011;18096;48.142;16.290;2023-04-16T10:01:47;2.50;;;2.17;;
14094;SDS011;18096;48.142;16.290;2023-04-16T10:04:13;2.13;;;1.92;;
14094;SDS011;18096;48.142;16.290;2023-04-16T10:06:39;1.80;;;1.70;;
14094;SDS011;18096;48.142;16.290;2023-04-16T10:09:06;1.90;;;1.80;;
14094;SDS011;18096;48.142;16.290;2023-04-16T10:11:32;2.08;;;1.98;;
14094;SDS011;18096;48.142;16.290;2023-04-16T10:13:58;1.90;;;1.80;;
14094;SDS011;18096;48.142;16.290;2023-04-16T10:16:24;1.85;;;1.75;;
14094;SDS011;18096;48.142;16.290;2023-04-16T10:18:50;1.90;;;1.80;;
14094;SDS011;18096;48.142;16.290;2023-04-16T10:21:16;1.80;;;1.70;;
14094;SDS011;18096;48.142;16.290;2023-04-16T10:23:43;2.10;;;2.00;;
14094;SDS011;18096;48.142;16.290;2023-04-16T10:26:09;2.00;;;1.90;;
14094;SDS011;18096;48.142;16.290;2023-04-16T10:28:34;1.60;;;1.60;;
14094;SDS011;18096;48.142;16.290;2023-04-16T10:31:04;1.65;;;1.55;;
14094;SDS011;18096;48.142;16.290;2023-04-16T10:33:32;1.65;;;1.55;;
14094;SDS011;18096;48.142;16.290;2023-04-16T10:36:16;1.77;;;1.67;;
14094;SDS011;18096;48.142;16.290;2023-04-16T10:38:51;1.70;;;1.60;;
14094;SDS011;18096;48.142;16.290;2023-04-16T10:41:20;4.35;;;1.60;;
14094;SDS011;18096;48.142;16.290;2023-04-16T10:43:47;2.00;;;1.80;;
14094;SDS011;18096;48.142;16.290;2023-04-16T10:46:24;2.03;;;1.90;;
14094;SDS011;18096;48.142;16.290;2023-04-16T10:48:54;1.35;;;1.35;;
14094;SDS011;18096;48.142;16.290;2023-04-16T10:56:33;1.80;;;1.70;;
14094;SDS011;18096;48.142;16.290;2023-04-16T10:59:03;1.88;;;1.77;;
14094;SDS011;18096;48.142;16.290;2023-04-16T11:01:34;1.80;;;1.60;;
14094;SDS011;18096;48.142;16.290;2023-04-16T11:04:01;1.35;;;1.35;;
14094;SDS011;18096;48.142;16.290;2023-04-16T11:14:46;1.75;;;1.65;;
14094;SDS011;18096;48.142;16.290;2023-04-16T11:17:39;1.52;;;1.42;;
14094;SDS011;18096;48.142;16.290;2023-04-16T11:20:09;1.33;;;1.23;;
14094;SDS011;18096;48.142;16.290;2023-04-16T11:22:39;1.10;;;1.10;;
14094;SDS011;18096;48.142;16.290;2023-04-16T11:25:06;1.20;;;1.20;;
14094;SDS011;18096;48.142;16.290;2023-04-16T11:27:32;1.60;;;1.20;;
14094;SDS011;18096;48.142;16.290;2023-04-16T11:29:59;1.90;;;1.80;;
14094;SDS011;18096;48.142;16.290;2023-04-16T11:32:26;1.80;;;1.70;;
14094;SDS011;18096;48.142;16.290;2023-04-16T11:34:55;2.25;;;2.08;;
14094;SDS011;18096;48.142;16.290;2023-04-16T11:37:21;2.55;;;2.28;;
14094;SDS011;18096;48.142;16.290;2023-04-16T11:39:57;2.75;;;2.33;;
14094;SDS011;18096;48.142;16.290;2023-04-16T11:42:23;2.00;;;2.00;;
14094;SDS011;18096;48.142;16.290;2023-04-16T11:44:52;2.95;;;2.33;;
14094;SDS011;18096;48.142;16.290;2023-04-16T11:47:19;2.03;;;1.92;;
14094;SDS011;18096;48.142;16.290;2023-04-16T11:49:45;1.67;;;1.60;;
14094;SDS011;18096;48.142;16.290;2023-04-16T11:52:11;2.20;;;2.10;;
14094;SDS011;18096;48.142;16.290;2023-04-16T11:54:36;1.75;;;1.65;;
14094;SDS011;18096;48.142;16.290;2023-04-16T11:57:02;1.92;;;1.83;;
14094;SDS011;18096;48.142;16.290;2023-04-16T11:59:29;2.03;;;1.92;;
14094;SDS011;18096;48.142;16.290;2023-04-16T12:01:55;2.10;;;2.00;;
14094;SDS011;18096;48.142;16.290;2023-04-16T12:04:22;2.45;;;2.30;;
14094;SDS011;18096;48.142;16.290;2023-04-16T12:09:35;3.70;;;2.30;;
14094;SDS011;18096;48.142;16.290;2023-04-16T12:12:05;2.42;;;2.25;;
14094;SDS011;18096;48.142;16.290;2023-04-16T12:14:49;2.40;;;2.22;;
14094;SDS011;18096;48.142;16.290;2023-04-16T12:17:17;1.88;;;1.77;;
14094;SDS011;18096;48.142;16.290;2023-04-16T12:19:49;2.10;;;2.00;;
14094;SDS011;18096;48.142;16.290;2023-04-16T12:22:16;3.58;;;2.00;;
14094;SDS011;18096;48.142;16.290;2023-04-16T12:24:54;2.10;;;2.00;;
14094;SDS011;18096;48.142;16.290;2023-04-16T12:27:21;2.30;;;2.20;;
14094;SDS011;18096;48.142;16.290;2023-04-16T12:30:01;2.17;;;2.08;;
14094;SDS011;18096;48.142;16.290;2023-04-16T12:32:31;2.40;;;2.30;;
14094;SDS011;18096;48.142;16.290;2023-04-16T12:34:57;2.47;;;2.30;;
14094;SDS011;18096;48.142;16.290;2023-04-16T12:37:22;2.80;;;1.93;;
14094;SDS011;18096;48.142;16.290;2023-04-16T12:39:48;2.22;;;2.10;;
14094;SDS011;18096;48.142;16.290;2023-04-16T12:42:14;2.03;;;1.92;;
14094;SDS011;18096;48.142;16.290;2023-04-16T12:44:40;2.40;;;1.90;;
14094;SDS011;18096;48.142;16.290;2023-04-16T12:47:05;3.40;;;1.93;;
14094;SDS011;18096;48.142;16.290;2023-04-16T12:49:31;1.70;;;1.60;;
14094;SDS011;18096;48.142;16.290;2023-04-16T12:51:57;1.50;;;1.40;;
14094;SDS011;18096;48.142;16.290;2023-04-16T12:54:22;1.70;;;1.60;;
14094;SDS011;18096;48.142;16.290;2023-04-16T12:56:52;2.08;;;1.98;;
14094;SDS011;18096;48.142;16.290;2023-04-16T12:59:18;1.73;;;1.63;;
14094;SDS011;18096;48.142;16.290;2023-04-16T13:01:44;2.40;;;1.50;;
14094;SDS011;18096;48.142;16.290;2023-04-16T13:04:10;2.23;;;2.13;;
14094;SDS011;18096;48.142;16.290;2023-04-16T13:06:35;2.47;;;2.28;;
14094;SDS011;18096;48.142;16.290;2023-04-16T13:09:01;1.80;;;1.70;;
14094;SDS011;18096;48.142;16.290;2023-04-16T13:11:28;1.77;;;1.67;;
14094;SDS011;18096;48.142;16.290;2023-04-16T13:13:54;2.08;;;1.90;;
14094;SDS011;18096;48.142;16.290;2023-04-16T13:16:20;2.22;;;2.13;;
14094;SDS011;18096;48.142;16.290;2023-04-16T13:18:46;2.10;;;2.00;;
14094;SDS011;18096;48.142;16.290;2023-04-16T13:21:12;2.17;;;1.73;;
14094;SDS011;18096;48.142;16.290;2023-04-16T13:23:37;2.00;;;1.80;;
14094;SDS011;18096;48.142;16.290;2023-04-16T13:26:03;1.48;;;1.38;;
14094;SDS011;18096;48.142;16.290;2023-04-16T13:28:29;3.00;;;1.60;;
14094;SDS011;18096;48.142;16.290;2023-04-16T13:30:55;1.60;;;1.50;;
14094;SDS011;18096;48.142;16.290;2023-04-16T13:33:21;1.35;;;1.25;;
14094;SDS011;18096;48.142;16.290;2023-04-16T13:35:50;2.40;;;1.50;;
14094;SDS011;18096;48.142;16.290;2023-04-16T13:38:15;1.88;;;1.60;;
14094;SDS011;18096;48.142;16.290;2023-04-16T13:40:42;2.10;;;1.50;;
14094;SDS011;18096;48.142;16.290;2023-04-16T13:43:08;1.33;;;1.33;;
14094;SDS011;18096;48.142;16.290;2023-04-16T13:45:33;1.65;;;1.55;;
14094;SDS011;18096;48.142;16.290;2023-04-16T13:48:00;1.35;;;1.30;;
14094;SDS011;18096;48.142;16.290;2023-04-16T13:50:26;1.70;;;1.60;;
14094;SDS011;18096;48.142;16.290;2023-04-16T13:52:52;2.20;;;1.48;;
14094;SDS011;18096;48.142;16.290;2023-04-16T13:55:18;2.00;;;1.30;;
14094;SDS011;18096;48.142;16.290;2023-04-16T13:57:44;1.15;;;1.15;;
14094;SDS011;18096;48.142;16.290;2023-04-16T14:00:11;1.80;;;1.70;;
14094;SDS011;18096;48.142;16.290;2023-04-16T14:02:39;1.42;;;1.40;;
14094;SDS011;18096;48.142;16.290;2023-04-16T14:05:06;1.90;;;1.60;;
14094;SDS011;18096;48.142;16.290;2023-04-16T14:07:32;4.05;;;1.45;;
14094;SDS011;18096;48.142;16.290;2023-04-16T14:09:59;1.20;;;1.20;;
14094;SDS011;18096;48.142;16.290;2023-04-16T14:12:26;1.30;;;1.30;;
14094;SDS011;18096;48.142;16.290;2023-04-16T14:14:52;1.40;;;1.30;;
14094;SDS011;18096;48.142;16.290;2023-04-16T14:17:18;1.30;;;1.30;;
14094;SDS011;18096;48.142;16.290;2023-04-16T14:19:44;1.40;;;1.30;;
14094;SDS011;18096;48.142;16.290;2023-04-16T14:22:10;1.30;;;1.20;;
14094;SDS011;18096;48.142;16.290;2023-04-16T14:24:35;1.00;;;1.00;;
14094;SDS011;18096;48.142;16.290;2023-04-16T14:27:01;1.05;;;1.05;;
14094;SDS011;18096;48.142;16.290;2023-04-16T14:29:27;1.52;;;1.40;;
14094;SDS011;18096;48.142;16.290;2023-04-16T14:31:53;1.50;;;1.40;;
14094;SDS011;18096;48.142;16.290;2023-04-16T14:34:18;1.97;;;1.10;;
14094;SDS011;18096;48.142;16.290;2023-04-16T14:36:44;0.90;;;0.90;;
14094;SDS011;18096;48.142;16.290;2023-04-16T14:39:10;1.10;;;1.10;;
14094;SDS011;18096;48.142;16.290;2023-04-16T14:41:39;1.52;;;1.50;;
14094;SDS011;18096;48.142;16.290;2023-04-16T14:44:05;2.67;;;1.60;;
14094;SDS011;18096;48.142;16.290;2023-04-16T14:46:32;1.33;;;1.23;;